Time;durP1;ratioP1;P1;durP2;ratioP2;P2;SDS_P1;SDS_P2;PMS_P1;PMS_P2;Temp;Humidity;BMP_temperature;BMP_pressure;BME280_temperature;BME280_humidity;BME280_pressure;Samples;Min_cycle;Max_cycle;Signal;HPM_P1;HPM_P2
2022/03/08 00:00:41;;;;;;;61.60;55.30;;;;;;;-1.95;74.51;98354.99;106120;1280;23058;-79
2022/03/08 00:03:10;;;;;;;60.70;54.00;;;;;;;-1.98;74.44;98353.21;106048;1278;25428;-84
2022/03/08 00:05:39;;;;;;;57.20;50.90;;;;;;;-2.00;74.34;98349.48;105819;1278;24078;-81
2022/03/08 00:08:07;;;;;;;54.70;49.10;;;;;;;-2.00;74.29;98346.88;105759;1280;24451;-83
2022/03/08 00:10:35;;;;;;;66.00;59.20;;;;;;;-2.00;74.43;98349.59;105513;1280;22710;-84
2022/03/08 00:13:06;;;;;;;58.00;51.70;;;;;;;-2.02;74.46;98354.23;105771;1278;25478;-81
2022/03/08 00:15:34;;;;;;;60.70;54.50;;;;;;;-2.07;74.58;98351.52;105629;1280;22613;-82
2022/03/08 00:18:02;;;;;;;66.50;58.30;;;;;;;-2.11;74.74;98350.80;106461;1280;22622;-81
2022/03/08 00:20:30;;;;;;;65.50;58.50;;;;;;;-2.14;74.76;98351.41;106399;1278;26523;-79
2022/03/08 00:22:59;;;;;;;61.20;54.80;;;;;;;-2.18;74.89;98354.99;106184;1280;25387;-79
2022/03/08 00:25:28;;;;;;;53.50;47.80;;;;;;;-2.22;75.54;98356.66;106065;1280;22642;-81
2022/03/08 00:27:56;;;;;;;58.40;52.40;;;;;;;-2.01;79.53;98359.27;106332;1280;25387;-79
2022/03/08 00:30:26;;;;;;;58.60;52.40;;;;;;;-1.66;79.62;98353.15;106054;1280;22627;-84
2022/03/08 00:32:56;;;;;;;61.30;55.00;;;;;;;-1.53;77.11;98354.67;105700;1277;25442;-85
2022/03/08 00:35:25;;;;;;;66.50;59.50;;;;;;;-1.58;76.28;98355.60;105880;1278;25436;-83
2022/03/08 00:37:55;;;;;;;74.40;65.70;;;;;;;-1.62;76.12;98352.77;105651;1278;25444;-79
2022/03/08 00:40:48;;;;;;;68.40;61.40;;;;;;;-1.66;75.90;98357.21;105827;1280;24327;-79
2022/03/08 00:43:16;;;;;;;75.60;66.40;;;;;;;-1.75;76.05;98359.52;105829;1280;23280;-79
2022/03/08 00:45:44;;;;;;;70.30;62.70;;;;;;;-1.82;76.01;98356.38;105778;1280;22748;-79
2022/03/08 00:48:38;;;;;;;68.30;61.40;;;;;;;-1.86;75.86;98362.89;105856;1280;24243;-77
2022/03/08 00:51:07;;;;;;;66.70;59.50;;;;;;;-1.86;75.72;98359.91;105853;1280;25100;-80
2022/03/08 00:53:35;;;;;;;67.40;60.60;;;;;;;-1.84;75.74;98360.89;105837;1280;24524;-78
2022/03/08 00:56:04;;;;;;;68.40;61.40;;;;;;;-1.84;75.74;98358.66;105862;1280;22700;-79
2022/03/08 00:58:34;;;;;;;74.10;66.20;;;;;;;-1.86;75.66;98354.23;105783;1280;24513;-79
2022/03/08 01:01:03;;;;;;;70.40;63.30;;;;;;;-1.89;75.69;98354.94;106071;1280;23511;-78
2022/03/08 01:03:31;;;;;;;72.50;64.10;;;;;;;-1.95;75.72;98352.50;107260;1280;24400;-78
2022/03/08 01:06:00;;;;;;;68.50;61.60;;;;;;;-2.00;75.70;98349.52;105830;1280;25407;-78
2022/03/08 01:08:31;;;;;;;72.10;60.60;;;;;;;-2.03;75.64;98347.48;105892;1280;22615;-78
2022/03/08 01:10:59;;;;;;;71.80;63.80;;;;;;;-2.04;75.59;98343.91;105737;1280;24402;-78
2022/03/08 01:13:26;;;;;;;71.40;62.30;;;;;;;-2.03;75.53;98343.42;105740;1280;22556;-76
2022/03/08 01:15:56;;;;;;;78.40;68.90;;;;;;;-2.07;75.49;98346.27;105503;1280;22975;-77
2022/03/08 01:18:25;;;;;;;81.60;68.10;;;;;;;-2.11;75.60;98345.84;105725;1280;24127;-79
2022/03/08 01:20:54;;;;;;;78.70;68.80;;;;;;;-2.15;75.63;98349.59;105836;1280;25382;-78
2022/03/08 01:23:24;;;;;;;102.70;75.10;;;;;;;-2.20;75.68;98349.17;105759;1280;22555;-79
2022/03/08 01:25:51;;;;;;;90.10;73.00;;;;;;;-2.25;75.64;98352.20;105530;1280;237382;-78
2022/03/08 01:28:22;;;;;;;116.70;82.10;;;;;;;-2.31;75.40;98349.64;105738;1280;22548;-79
2022/03/08 01:30:50;;;;;;;91.40;77.20;;;;;;;-2.35;75.47;98353.66;105765;1280;22534;-78
2022/03/08 01:33:18;;;;;;;95.80;80.10;;;;;;;-2.39;75.32;98350.91;105724;1280;24221;-77
2022/03/08 01:35:46;;;;;;;99.70;82.00;;;;;;;-2.47;75.32;98349.83;105675;1280;22705;-77
2022/03/08 01:38:16;;;;;;;101.10;80.90;;;;;;;-2.53;75.55;98351.92;105947;1280;25726;-77
2022/03/08 01:40:44;;;;;;;110.10;80.00;;;;;;;-2.58;75.67;98348.96;105574;1280;24237;-78
2022/03/08 01:43:12;;;;;;;84.50;73.40;;;;;;;-2.63;75.66;98351.98;105778;1280;24391;-77
2022/03/08 01:45:42;;;;;;;81.60;70.50;;;;;;;-2.66;75.72;98352.86;105719;1278;23349;-78
2022/03/08 01:48:11;;;;;;;91.50;70.20;;;;;;;-2.65;75.61;98350.63;105870;1280;22725;-79
2022/03/08 01:50:39;;;;;;;83.40;72.50;;;;;;;-2.63;75.71;98347.67;105620;1280;22687;-78
2022/03/08 01:53:08;;;;;;;91.20;74.20;;;;;;;-2.64;75.69;98346.86;105835;1280;22554;-79
2022/03/08 01:55:36;;;;;;;82.80;74.00;;;;;;;-2.63;75.83;98341.95;105888;1280;23136;-79
2022/03/08 01:58:03;;;;;;;105.50;76.60;;;;;;;-2.63;75.85;98340.93;105654;1280;22693;-79
2022/03/08 02:00:32;;;;;;;112.30;83.90;;;;;;;-2.66;75.91;98339.52;105704;1280;23437;-79
2022/03/08 02:03:04;;;;;;;109.90;78.00;;;;;;;-2.71;75.73;98337.35;106058;1280;23277;-78
2022/03/08 02:05:32;;;;;;;135.50;91.00;;;;;;;-2.72;75.74;98336.14;106148;1280;23252;-78
2022/03/08 02:08:00;;;;;;;107.70;80.00;;;;;;;-2.74;75.56;98336.50;105704;1280;24448;-78
2022/03/08 02:10:28;;;;;;;111.00;83.60;;;;;;;-2.76;75.58;98332.93;105735;1280;24331;-80
2022/03/08 02:12:56;;;;;;;126.50;88.00;;;;;;;-2.79;75.70;98333.10;105724;1279;25412;-79
2022/03/08 02:15:27;;;;;;;125.00;89.70;;;;;;;-2.83;75.72;98336.42;105832;1279;22693;-79
2022/03/08 02:17:57;;;;;;;124.00;90.80;;;;;;;-2.88;75.63;98343.11;105901;1280;24465;-77
2022/03/08 02:20:26;;;;;;;126.70;93.30;;;;;;;-2.94;75.79;98348.75;105918;1280;22559;-78
2022/03/08 02:22:55;;;;;;;108.20;83.10;;;;;;;-3.00;75.61;98349.45;105843;1280;22693;-78
2022/03/08 02:25:23;;;;;;;112.20;86.60;;;;;;;-3.09;75.40;98354.96;105838;1280;22583;-78
2022/03/08 02:27:53;;;;;;;104.30;79.60;;;;;;;-3.13;75.42;98359.52;105864;1280;25481;-78
2022/03/08 02:30:24;;;;;;;112.20;77.60;;;;;;;-3.14;75.64;98361.15;105807;1280;22706;-78
2022/03/08 02:32:53;;;;;;;120.00;82.30;;;;;;;-3.18;75.73;98359.13;105514;1280;22620;-78
2022/03/08 02:35:24;;;;;;;100.90;78.40;;;;;;;-3.20;75.84;98354.15;105887;1280;25407;-77
2022/03/08 02:37:58;;;;;;;111.90;80.80;;;;;;;-3.30;75.55;98350.16;105654;1280;24550;-78
2022/03/08 02:40:30;;;;;;;106.00;78.20;;;;;;;-3.41;75.71;98344.27;105605;1279;26649;-78
2022/03/08 02:42:58;;;;;;;108.30;78.20;;;;;;;-3.46;75.80;98344.64;105822;1280;25455;-79
2022/03/08 02:45:26;;;;;;;90.50;76.30;;;;;;;-3.48;75.74;98342.02;105468;1281;22564;-77
2022/03/08 02:47:54;;;;;;;109.20;80.80;;;;;;;-3.45;75.97;98348.17;105861;1279;22557;-78
2022/03/08 02:50:23;;;;;;;109.40;83.00;;;;;;;-3.43;76.04;98345.82;105771;1279;24446;-78
2022/03/08 02:52:54;;;;;;;102.60;81.20;;;;;;;-3.48;75.78;98351.23;105648;1280;22544;-78
2022/03/08 02:55:24;;;;;;;129.10;84.00;;;;;;;-3.57;75.73;98349.98;105936;1280;22713;-77
2022/03/08 02:57:54;;;;;;;154.80;93.10;;;;;;;-3.68;75.73;98345.16;105956;1280;22576;-77
2022/03/08 03:00:25;;;;;;;158.50;90.90;;;;;;;-3.78;75.97;98346.13;105294;1280;22587;-78
2022/03/08 03:02:53;;;;;;;146.50;85.20;;;;;;;-3.85;76.27;98348.08;105736;1280;25281;-78
2022/03/08 03:05:22;;;;;;;134.10;83.60;;;;;;;-3.90;75.94;98349.00;105943;1279;22570;-78
2022/03/08 03:07:50;;;;;;;160.00;90.30;;;;;;;-3.95;76.40;98347.70;105640;1280;22705;-77
2022/03/08 03:10:20;;;;;;;158.90;93.60;;;;;;;-3.99;76.28;98351.97;105386;1280;23362;-79
2022/03/08 03:12:49;;;;;;;131.80;91.60;;;;;;;-4.04;76.36;98351.70;105890;1280;22717;-78
2022/03/08 03:15:18;;;;;;;152.10;92.40;;;;;;;-4.04;76.60;98353.00;105938;1280;22550;-78
2022/03/08 03:17:47;;;;;;;141.10;90.30;;;;;;;-4.07;76.60;98357.92;105940;1280;22865;-79
2022/03/08 03:20:17;;;;;;;147.10;90.80;;;;;;;-4.06;76.83;98363.27;105925;1280;22558;-78
2022/03/08 03:22:47;;;;;;;121.40;85.40;;;;;;;-4.04;76.66;98367.36;105974;1280;22723;-79
2022/03/08 03:25:16;;;;;;;130.00;87.70;;;;;;;-4.00;76.72;98368.61;105953;1280;22563;-79
2022/03/08 03:27:44;;;;;;;114.70;87.60;;;;;;;-3.97;76.63;98367.81;106015;1280;25478;-82
2022/03/08 03:30:16;;;;;;;127.70;88.80;;;;;;;-3.96;76.84;98369.94;105987;1280;22622;-79
2022/03/08 03:32:45;;;;;;;126.80;90.40;;;;;;;-3.98;76.68;98370.36;106051;1280;24362;-79
2022/03/08 03:35:13;;;;;;;127.80;94.30;;;;;;;-4.00;76.79;98370.51;105717;1280;22672;-78
2022/03/08 03:37:41;;;;;;;118.30;83.70;;;;;;;-4.02;76.92;98372.17;105696;1281;25564;-79
2022/03/08 03:40:10;;;;;;;119.00;86.60;;;;;;;-4.02;76.90;98373.59;105945;1280;24402;-79
2022/03/08 03:42:38;;;;;;;109.40;82.20;;;;;;;-4.01;76.77;98365.16;106029;1280;22559;-80
2022/03/08 03:45:07;;;;;;;116.40;83.70;;;;;;;-3.99;76.89;98368.46;106006;1281;22800;-78
2022/03/08 03:47:35;;;;;;;112.40;85.80;;;;;;;-3.97;76.98;98369.59;105763;1281;24116;-84
2022/03/08 03:50:05;;;;;;;130.70;90.60;;;;;;;-3.99;76.84;98370.11;105532;1281;25376;-78
2022/03/08 03:52:34;;;;;;;125.60;91.60;;;;;;;-4.02;76.69;98373.77;105999;1280;22546;-79
2022/03/08 03:55:03;;;;;;;149.00;96.10;;;;;;;-4.11;76.65;98376.56;105537;1280;24372;-78
2022/03/08 03:57:31;;;;;;;135.30;94.50;;;;;;;-4.22;76.30;98380.30;105953;1280;25371;-78
2022/03/08 03:59:59;;;;;;;120.00;89.50;;;;;;;-4.36;76.36;98381.36;105738;1281;22700;-78
2022/03/08 04:02:27;;;;;;;123.60;88.70;;;;;;;-4.47;76.45;98377.55;105953;1280;22865;-78
2022/03/08 04:04:55;;;;;;;125.90;89.90;;;;;;;-4.50;76.46;98382.19;105975;1281;24433;-78
2022/03/08 04:07:22;;;;;;;134.40;95.10;;;;;;;-4.49;76.61;98383.98;105975;1281;22532;-79
2022/03/08 04:09:50;;;;;;;129.70;92.60;;;;;;;-4.50;76.66;98382.52;106003;1281;22532;-78
2022/03/08 04:12:18;;;;;;;137.10;92.70;;;;;;;-4.53;76.54;98382.05;105915;1281;25537;-79
2022/03/08 04:14:46;;;;;;;146.20;99.90;;;;;;;-4.59;76.45;98384.86;105817;1281;22692;-78
2022/03/08 04:17:14;;;;;;;165.20;115.90;;;;;;;-4.68;76.28;98390.65;105494;1281;25367;-78
2022/03/08 04:19:42;;;;;;;155.70;107.50;;;;;;;-4.84;75.92;98393.54;105868;1280;22627;-78
2022/03/08 04:22:10;;;;;;;167.60;115.00;;;;;;;-5.01;75.97;98394.86;105876;1280;22683;-77
2022/03/08 04:24:38;;;;;;;192.90;119.60;;;;;;;-5.14;75.85;98400.55;105924;1281;22679;-78
2022/03/08 04:27:06;;;;;;;133.00;91.30;;;;;;;-5.27;75.89;98403.64;105698;1280;24437;-76
2022/03/08 04:29:34;;;;;;;127.10;92.10;;;;;;;-5.33;76.02;98403.93;105715;1280;22558;-78
2022/03/08 04:32:02;;;;;;;136.30;94.40;;;;;;;-5.33;76.30;98401.63;105664;1281;22569;-77
2022/03/08 04:34:30;;;;;;;139.00;100.40;;;;;;;-5.34;76.51;98403.41;105402;1281;25718;-79
2022/03/08 04:36:58;;;;;;;160.00;108.80;;;;;;;-5.28;76.94;98409.93;105580;1280;22693;-79
2022/03/08 04:39:26;;;;;;;171.00;113.40;;;;;;;-5.23;77.18;98410.80;105953;1280;25420;-79
2022/03/08 04:41:54;;;;;;;186.00;122.90;;;;;;;-5.22;77.20;98414.53;106009;1280;22707;-78
2022/03/08 04:44:21;;;;;;;174.70;115.40;;;;;;;-5.19;77.29;98414.65;105819;1281;24222;-77
2022/03/08 04:46:51;;;;;;;172.80;110.10;;;;;;;-5.16;77.11;98417.70;106031;1281;22700;-77
2022/03/08 04:49:19;;;;;;;167.90;111.30;;;;;;;-5.10;77.02;98415.27;105944;1280;22865;-78
2022/03/08 04:51:47;;;;;;;174.00;117.80;;;;;;;-5.00;77.21;98421.12;105772;1280;24420;-78
2022/03/08 04:54:15;;;;;;;171.80;117.70;;;;;;;-4.92;77.09;98424.64;105605;1281;23377;-78
2022/03/08 04:56:43;;;;;;;195.80;135.30;;;;;;;-4.84;77.31;98428.80;105477;1281;23901;-78
2022/03/08 04:59:11;;;;;;;197.70;134.60;;;;;;;-4.77;77.38;98434.80;105796;1281;25376;-78
2022/03/08 05:01:39;;;;;;;181.20;118.70;;;;;;;-4.72;77.22;98433.83;105927;1281;25326;-79
2022/03/08 05:04:07;;;;;;;220.80;149.20;;;;;;;-4.73;76.96;98441.62;105899;1281;22541;-79
2022/03/08 05:06:34;;;;;;;155.40;100.10;;;;;;;-4.70;77.25;98442.56;105818;1281;24373;-81
2022/03/08 05:09:03;;;;;;;168.50;109.20;;;;;;;-4.63;77.42;98444.09;105814;1280;22541;-79
2022/03/08 05:11:31;;;;;;;159.60;105.80;;;;;;;-4.50;77.38;98444.30;105812;1281;22542;-79
2022/03/08 05:14:05;;;;;;;147.20;102.40;;;;;;;-4.38;77.52;98443.80;105625;1281;22003;-81
2022/03/08 05:16:33;;;;;;;166.30;106.90;;;;;;;-4.31;77.36;98442.44;105920;1281;22589;-79
2022/03/08 05:19:01;;;;;;;153.80;97.00;;;;;;;-4.25;77.46;98442.16;105559;1281;22554;-78
2022/03/08 05:21:29;;;;;;;105.80;80.10;;;;;;;-4.19;77.64;98443.88;105673;1281;24401;-78
2022/03/08 05:23:57;;;;;;;80.20;65.40;;;;;;;-4.11;77.87;98442.71;105709;1280;22990;-79
2022/03/08 05:26:25;;;;;;;66.40;59.70;;;;;;;-4.02;77.98;98441.25;105566;1281;22596;-79
2022/03/08 05:28:52;;;;;;;90.00;71.90;;;;;;;-3.88;78.00;98444.50;105430;1281;22665;-79
2022/03/08 05:31:20;;;;;;;67.50;60.50;;;;;;;-3.76;77.92;98443.08;105795;1280;23013;-78
2022/03/08 05:33:48;;;;;;;75.60;67.80;;;;;;;-3.64;78.09;98446.52;105548;1281;23213;-78
2022/03/08 05:36:16;;;;;;;98.10;77.20;;;;;;;-3.52;78.29;98450.59;105817;1281;23209;-78
2022/03/08 05:38:44;;;;;;;80.20;71.80;;;;;;;-3.40;78.47;98457.23;105430;1283;23406;-79
2022/03/08 05:41:12;;;;;;;72.80;65.00;;;;;;;-3.30;78.39;98461.89;105947;1279;22712;-77
2022/03/08 05:43:40;;;;;;;66.40;59.60;;;;;;;-3.21;78.28;98465.79;105918;1281;24419;-76
2022/03/08 05:46:07;;;;;;;62.20;56.10;;;;;;;-3.09;78.35;98464.66;105740;1281;25348;-79
2022/03/08 05:48:35;;;;;;;66.20;59.60;;;;;;;-2.96;78.44;98470.46;105957;1280;25368;-78
2022/03/08 05:51:03;;;;;;;63.50;57.00;;;;;;;-2.85;78.32;98473.10;105900;1281;22538;-78
2022/03/08 05:53:31;;;;;;;67.70;61.20;;;;;;;-2.77;78.37;98475.24;105804;1281;22586;-77
2022/03/08 05:55:59;;;;;;;64.30;57.90;;;;;;;-2.73;78.01;98473.42;105929;1281;22734;-77
2022/03/08 05:58:32;;;;;;;65.90;59.30;;;;;;;-2.70;78.17;98472.30;105620;1281;22662;-77
2022/03/08 06:01:00;;;;;;;64.20;57.30;;;;;;;-2.70;77.98;98472.83;106048;1281;24316;-79
2022/03/08 06:03:27;;;;;;;58.60;52.30;;;;;;;-2.68;78.08;98471.20;105538;1281;22553;-78
2022/03/08 06:05:55;;;;;;;57.10;51.10;;;;;;;-2.62;78.21;98468.98;105422;1283;25426;-78
2022/03/08 06:08:24;;;;;;;59.40;53.30;;;;;;;-2.53;78.23;98472.96;105722;1281;24413;-78
2022/03/08 06:10:52;;;;;;;64.30;57.70;;;;;;;-2.43;78.51;98472.83;105951;1280;22556;-78
2022/03/08 06:13:20;;;;;;;66.80;60.20;;;;;;;-2.34;78.52;98470.09;105627;1281;25482;-78
2022/03/08 06:15:48;;;;;;;77.40;69.60;;;;;;;-2.27;78.72;98474.92;105887;1281;22553;-80
2022/03/08 06:18:16;;;;;;;132.80;88.70;;;;;;;-2.23;78.55;98477.61;105971;1281;22692;-79
2022/03/08 06:20:44;;;;;;;222.10;120.60;;;;;;;-2.22;78.30;98478.45;105909;1281;22781;-81
2022/03/08 06:23:12;;;;;;;143.70;92.00;;;;;;;-2.21;78.12;98483.00;105645;1281;22589;-78
2022/03/08 06:25:40;;;;;;;167.30;105.60;;;;;;;-2.17;78.35;98481.96;105788;1280;22805;-78
2022/03/08 06:28:08;;;;;;;259.10;171.70;;;;;;;-2.16;78.34;98480.65;105886;1280;24238;-80
2022/03/08 06:30:36;;;;;;;222.80;147.90;;;;;;;-2.14;78.42;98478.86;105903;1280;22565;-79
2022/03/08 06:33:04;;;;;;;190.40;133.80;;;;;;;-2.13;78.67;98478.59;105745;1280;24447;-79
2022/03/08 06:35:32;;;;;;;163.40;108.60;;;;;;;-2.14;78.54;98485.33;105902;1279;25216;-79
2022/03/08 06:38:00;;;;;;;103.80;80.50;;;;;;;-2.13;78.34;98485.05;105814;1280;25268;-79
2022/03/08 06:40:28;;;;;;;96.40;77.80;;;;;;;-2.11;78.44;98486.42;105921;1280;24296;-79
2022/03/08 06:42:56;;;;;;;93.90;73.50;;;;;;;-2.08;78.36;98490.17;105547;1280;22556;-78
2022/03/08 06:45:27;;;;;;;97.10;75.20;;;;;;;-2.03;78.32;98490.54;105903;1280;24440;-81
2022/03/08 06:47:55;;;;;;;127.00;77.20;;;;;;;-1.96;78.38;98490.81;105892;1280;24400;-78
2022/03/08 06:50:23;;;;;;;105.30;75.70;;;;;;;-1.90;78.44;98494.31;105736;1280;22666;-78
2022/03/08 06:52:51;;;;;;;76.50;67.80;;;;;;;-1.89;78.49;98495.77;105557;1280;24242;-78
2022/03/08 06:55:19;;;;;;;79.30;68.10;;;;;;;-1.87;78.57;98494.31;105765;1280;22559;-78
2022/03/08 06:57:47;;;;;;;90.40;65.20;;;;;;;-1.86;78.45;98498.16;105913;1280;23460;-79
2022/03/08 07:00:15;;;;;;;73.10;59.80;;;;;;;-1.81;78.56;98498.61;105541;1281;22672;-78
2022/03/08 07:02:44;;;;;;;72.40;63.30;;;;;;;-1.72;78.57;98501.49;105774;1280;24310;-77
2022/03/08 07:05:12;;;;;;;65.50;58.60;;;;;;;-1.66;78.52;98498.64;105496;1279;24273;-78
2022/03/08 07:07:40;;;;;;;69.10;62.00;;;;;;;-1.58;78.63;98496.80;105719;1279;24526;-78
2022/03/08 07:10:08;;;;;;;78.20;66.10;;;;;;;-1.51;78.86;98491.95;105545;1280;24084;-78
2022/03/08 07:12:36;;;;;;;97.30;72.30;;;;;;;-1.46;78.73;98486.09;105449;1281;23943;-79
2022/03/08 07:15:06;;;;;;;117.30;79.00;;;;;;;-1.43;78.73;98480.75;105817;1279;25371;-79
2022/03/08 07:17:34;;;;;;;111.70;74.80;;;;;;;-1.42;78.63;98477.86;105858;1279;23949;-79
2022/03/08 07:20:07;;;;;;;100.20;70.50;;;;;;;-1.42;78.52;98482.59;105851;1279;24514;-79
2022/03/08 07:22:36;;;;;;;102.70;67.60;;;;;;;-1.40;78.64;98485.02;105709;1279;24433;-78
2022/03/08 07:25:05;;;;;;;93.10;67.70;;;;;;;-1.40;78.63;98487.79;105697;1280;22716;-78
2022/03/08 07:27:33;;;;;;;104.70;70.40;;;;;;;-1.41;78.89;98478.04;105490;1279;22559;-78
2022/03/08 07:30:05;;;;;;;91.40;69.40;;;;;;;-1.40;79.03;98478.91;106006;1280;22694;-78
2022/03/08 07:32:33;;;;;;;96.80;66.20;;;;;;;-1.37;78.83;98485.05;105673;1280;22564;-78
2022/03/08 07:35:02;;;;;;;86.40;64.00;;;;;;;-1.34;78.83;98487.41;105697;1280;22662;-79
2022/03/08 07:37:38;;;;;;;69.10;61.60;;;;;;;-1.31;78.84;98489.95;105708;1279;25318;-79
2022/03/08 07:40:08;;;;;;;74.70;63.50;;;;;;;-1.23;78.90;98496.04;105880;1279;24390;-78
2022/03/08 07:42:36;;;;;;;76.30;64.30;;;;;;;-1.17;79.01;98494.45;105919;1279;24706;-78
2022/03/08 07:45:04;;;;;;;74.70;66.60;;;;;;;-1.16;79.11;98488.54;105798;1280;24451;-78
2022/03/08 07:47:32;;;;;;;81.90;70.60;;;;;;;-1.12;79.08;98487.58;105844;1279;22730;-77
2022/03/08 07:50:00;;;;;;;79.70;71.30;;;;;;;-1.10;79.01;98486.44;105528;1280;22571;-78
2022/03/08 07:52:28;;;;;;;68.10;60.70;;;;;;;-1.05;79.34;98486.73;105890;1280;23336;-78
2022/03/08 07:54:56;;;;;;;67.50;56.10;;;;;;;-1.01;79.34;98486.05;105411;1279;25282;-78
2022/03/08 07:57:23;;;;;;;63.40;56.90;;;;;;;-0.93;79.35;98489.88;105360;1280;22814;-79
2022/03/08 08:00:12;;;;;;;62.60;56.60;;;;;;;-0.88;79.48;98489.12;105794;1280;22658;-77
2022/03/08 08:02:40;;;;;;;63.30;56.90;;;;;;;-0.82;79.34;98497.61;105833;1280;22801;-78
2022/03/08 08:05:09;;;;;;;68.30;61.60;;;;;;;-0.75;79.51;98494.35;105719;1280;22561;-79
2022/03/08 08:07:36;;;;;;;58.80;52.70;;;;;;;-0.69;79.58;98500.63;105821;1280;22568;-76
2022/03/08 08:10:05;;;;;;;72.90;46.40;;;;;;;-0.66;79.74;98502.23;105746;1280;24242;-80
2022/03/08 08:12:34;;;;;;;50.70;45.80;;;;;;;-0.66;79.79;98499.23;105906;1280;22534;-78
2022/03/08 08:15:03;;;;;;;53.00;47.60;;;;;;;-0.67;79.54;98500.67;105922;1280;22661;-76
2022/03/08 08:17:32;;;;;;;55.20;49.70;;;;;;;-0.66;79.51;98503.71;105434;1281;22665;-76
2022/03/08 08:20:00;;;;;;;53.00;47.40;;;;;;;-0.71;79.93;98501.52;106051;1278;24561;-77
2022/03/08 08:22:28;;;;;;;49.10;43.80;;;;;;;-0.74;79.58;98499.31;105792;1280;22794;-76
2022/03/08 08:24:56;;;;;;;46.90;41.90;;;;;;;-0.64;80.00;98506.15;105587;1280;25392;-77
2022/03/08 08:27:24;;;;;;;50.30;44.50;;;;;;;-0.60;79.80;98510.01;105457;1280;22550;-76
2022/03/08 08:29:52;;;;;;;51.70;46.40;;;;;;;-0.57;79.83;98514.71;105538;1279;22554;-76
2022/03/08 08:32:20;;;;;;;47.00;42.30;;;;;;;-0.51;79.85;98513.63;105628;1280;23016;-77
2022/03/08 08:34:48;;;;;;;47.40;42.60;;;;;;;-0.47;79.92;98513.84;105608;1279;22892;-77
2022/03/08 08:37:16;;;;;;;46.10;41.40;;;;;;;-0.41;79.70;98513.75;105622;1279;24111;-78
2022/03/08 08:39:43;;;;;;;43.80;39.50;;;;;;;-0.35;79.66;98519.88;105788;1279;25334;-78
2022/03/08 08:42:11;;;;;;;47.20;42.70;;;;;;;-0.36;79.64;98522.98;105770;1279;22563;-77
2022/03/08 08:44:45;;;;;;;42.40;38.10;;;;;;;-0.42;79.43;98522.41;105568;1279;25341;-77
2022/03/08 08:47:13;;;;;;;42.80;38.30;;;;;;;-0.42;79.54;98525.26;105933;1280;22688;-79
2022/03/08 08:49:41;;;;;;;43.60;39.40;;;;;;;-0.39;79.52;98528.11;105653;1279;23167;-77
2022/03/08 08:52:09;;;;;;;41.50;37.40;;;;;;;-0.38;79.44;98528.25;105879;1279;24401;-78
2022/03/08 08:54:37;;;;;;;43.80;39.30;;;;;;;-0.37;79.38;98531.30;105625;1282;22697;-77
2022/03/08 08:57:05;;;;;;;35.10;31.60;;;;;;;-0.34;79.50;98536.78;105930;1279;24295;-77
2022/03/08 08:59:33;;;;;;;31.60;28.50;;;;;;;-0.31;79.19;98535.54;105634;1279;24407;-77
2022/03/08 09:02:01;;;;;;;38.20;33.70;;;;;;;-0.33;78.91;98535.55;105651;1279;22555;-77
2022/03/08 09:04:29;;;;;;;37.60;33.90;;;;;;;-0.32;79.02;98540.77;105718;1279;25376;-78
2022/03/08 09:06:57;;;;;;;37.00;33.30;;;;;;;-0.29;78.99;98540.58;105954;1280;22538;-77
2022/03/08 09:09:25;;;;;;;36.90;33.20;;;;;;;-0.28;78.85;98537.88;105652;1279;25474;-77
2022/03/08 09:11:52;;;;;;;36.10;32.30;;;;;;;-0.24;78.78;98544.09;105319;1280;23854;-80
2022/03/08 09:14:20;;;;;;;38.00;33.60;;;;;;;-0.17;78.77;98544.59;105959;1279;22698;-77
2022/03/08 09:16:55;;;;;;;36.60;32.80;;;;;;;-0.10;78.72;98547.59;105698;1279;25369;-78
2022/03/08 09:19:23;;;;;;;38.60;34.70;;;;;;;-0.07;78.53;98541.18;105715;1279;25548;-79
2022/03/08 09:21:51;;;;;;;34.60;30.90;;;;;;;0.03;78.72;98542.34;105892;1280;23202;-76
2022/03/08 09:24:19;;;;;;;35.30;30.50;;;;;;;0.09;78.51;98544.29;105609;1279;25430;-76
2022/03/08 09:26:47;;;;;;;33.80;28.80;;;;;;;0.13;78.24;98543.48;105619;1279;22981;-77
2022/03/08 09:29:14;;;;;;;31.20;28.10;;;;;;;0.19;78.10;98549.68;105646;1279;25362;-77
2022/03/08 09:31:42;;;;;;;29.80;25.40;;;;;;;0.22;78.02;98548.75;105652;1279;23236;-77
2022/03/08 09:34:10;;;;;;;28.90;26.20;;;;;;;0.26;78.10;98549.33;105667;1279;25382;-77
2022/03/08 09:36:38;;;;;;;32.70;29.20;;;;;;;0.26;77.89;98547.50;105639;1279;25673;-78
2022/03/08 09:39:06;;;;;;;29.60;26.60;;;;;;;0.23;77.95;98543.60;105654;1280;24457;-76
2022/03/08 09:41:34;;;;;;;31.00;27.70;;;;;;;0.25;77.98;98544.08;105688;1279;22552;-77
2022/03/08 09:44:03;;;;;;;31.70;26.90;;;;;;;0.28;78.07;98546.21;105679;1279;22562;-78
2022/03/08 09:46:33;;;;;;;32.10;26.60;;;;;;;0.32;77.76;98541.73;105862;1279;22698;-78
2022/03/08 09:49:00;;;;;;;28.10;24.90;;;;;;;0.33;77.78;98540.52;105853;1279;25408;-75
2022/03/08 09:51:29;;;;;;;29.70;25.60;;;;;;;0.30;77.17;98545.51;105379;1280;25509;-77
2022/03/08 09:53:57;;;;;;;27.90;25.00;;;;;;;0.26;77.24;98543.21;105517;1280;22556;-77
2022/03/08 09:56:25;;;;;;;30.20;24.10;;;;;;;0.25;76.83;98544.24;105622;1280;22547;-78
2022/03/08 09:58:53;;;;;;;25.50;22.90;;;;;;;0.26;76.95;98542.09;105625;1279;22632;-78
2022/03/08 10:01:20;;;;;;;26.00;23.40;;;;;;;0.42;77.51;98538.55;105652;1281;26767;-78
2022/03/08 10:03:49;;;;;;;26.80;24.20;;;;;;;0.58;76.64;98536.42;105638;1281;22578;-78
2022/03/08 10:06:18;;;;;;;27.40;24.30;;;;;;;0.75;77.00;98530.61;105926;1279;23943;-78
2022/03/08 10:08:47;;;;;;;26.90;23.90;;;;;;;0.87;76.54;98526.09;105665;1280;23245;-77
2022/03/08 10:11:16;;;;;;;32.40;24.40;;;;;;;0.93;75.79;98527.58;105695;1279;24241;-79
2022/03/08 10:13:52;;;;;;;24.20;21.80;;;;;;;0.97;75.61;98532.64;105732;1281;22608;-79
2022/03/08 10:16:28;;;;;;;24.30;21.70;;;;;;;0.98;75.62;98532.35;105901;1279;24105;-80
2022/03/08 10:19:02;;;;;;;22.80;20.60;;;;;;;0.98;74.63;98535.05;105916;1279;24244;-79
2022/03/08 10:21:47;;;;;;;24.70;22.20;;;;;;;1.02;75.25;98530.75;106031;1279;22783;-79
2022/03/08 10:24:18;;;;;;;27.70;22.90;;;;;;;1.16;76.02;98528.67;105708;1279;22709;-78
2022/03/08 10:26:50;;;;;;;23.60;21.00;;;;;;;1.39;76.10;98525.98;105928;1279;25362;-78
2022/03/08 10:29:34;;;;;;;20.80;18.70;;;;;;;1.63;75.94;98524.40;105936;1279;23421;-79
2022/03/08 10:32:19;;;;;;;21.10;19.00;;;;;;;1.86;75.57;98527.23;105881;1279;22726;-79
2022/03/08 10:34:50;;;;;;;22.70;18.80;;;;;;;2.00;73.54;98520.43;105833;1279;22590;-79
2022/03/08 10:37:20;;;;;;;23.70;21.20;;;;;;;2.24;74.92;98519.45;105888;1279;23286;-78
2022/03/08 10:39:48;;;;;;;19.40;17.10;;;;;;;2.48;74.54;98520.84;105997;1279;25338;-79
2022/03/08 10:42:31;;;;;;;19.40;17.40;;;;;;;2.44;72.41;98520.34;105970;1279;24435;-78
2022/03/08 10:45:16;;;;;;;20.20;18.10;;;;;;;2.28;72.12;98522.73;105917;1279;22991;-79
2022/03/08 10:47:47;;;;;;;19.00;16.90;;;;;;;2.12;71.80;98518.79;105734;1279;22569;-80
2022/03/08 10:50:20;;;;;;;19.30;17.30;;;;;;;2.07;72.66;98521.48;105988;1280;25672;-79
2022/03/08 10:52:51;;;;;;;23.70;21.20;;;;;;;2.03;72.30;98519.77;105706;1279;22788;-79
2022/03/08 10:55:20;;;;;;;24.10;21.50;;;;;;;1.94;71.60;98515.21;105682;1280;22553;-78
2022/03/08 10:57:55;;;;;;;20.30;18.30;;;;;;;1.96;72.14;98517.43;106022;1279;25392;-76
2022/03/08 11:00:24;;;;;;;;;;;;;;;2.09;71.85;98512.00;105554;1280;25979;-78
2022/03/08 11:02:57;;;;;;;26.90;20.60;;;;;;;2.25;72.35;98501.27;105889;1280;22574;-79
2022/03/08 11:05:32;;;;;;;17.80;16.00;;;;;;;2.43;71.14;98498.72;105566;1280;23939;-78
2022/03/08 11:08:05;;;;;;;28.60;24.30;;;;;;;2.43;71.11;98496.53;105903;1280;22571;-78
2022/03/08 11:10:46;;;;;;;17.90;15.70;;;;;;;2.47;71.40;98496.77;105474;1279;22583;-79
2022/03/08 11:13:16;;;;;;;23.70;21.20;;;;;;;2.48;70.62;98492.83;105863;1279;22542;-79
2022/03/08 11:15:44;;;;;;;33.00;25.80;;;;;;;2.53;71.06;98492.83;105936;1279;22551;-77